Hartford, Connecticut
Current Conditions -  °F | °C
As of 10:53 PM on Sunday 21 Dec 2014 (Local Time) from KHFD Reporting Station
Overcast Overcast  
Wind Chill: 28°   Ceiling: 1600
Heat Index: 33°   Visibility: 9mi
Dew Point: 30°   Wind: 6mph
Humidity: 89%   Direction: 10°N
Pressure: 30.36"   Gusts: NA
Location:  41.76°N, 72.67°W
Report Text: KHFD 220353Z 01005KT 9SM OVC016 01/M01 A3036 RMK AO2 SNB02E13 SLP279 P0000 T00061011
Loading
Personal Weather Stations






























Interactive Weather Map New forecast layout! Learn more

10-Day Weather Forecast

Advertisements
Track Severe Weather on mobile